Time;durP1;ratioP1;P1;durP2;ratioP2;P2;SDS_P1;SDS_P2;PMS_P1;PMS_P2;Temp;Humidity;BMP_temperature;BMP_pressure;BME280_temperature;BME280_humidity;BME280_pressure;Samples;Min_cycle;Max_cycle;Signal;HPM_P1;HPM_P2
2023/07/09 00:00:53;;;;;;;;;;;23.70;60.90;;;;;;5083777;28;19919;-38
2023/07/09 00:03:19;;;;;;;;;;;23.70;60.90;;;;;;5083531;28;20315;-38
2023/07/09 00:05:45;;;;;;;;;;;23.60;60.30;;;;;;5083084;28;19908;-38
2023/07/09 00:08:33;;;;;;;;;;;23.60;60.80;;;;;;5083247;28;19919;-38
2023/07/09 00:10:59;;;;;;;;;;;23.60;63.20;;;;;;5079889;28;19915;-38
2023/07/09 00:13:25;;;;;;;;;;;23.60;65.20;;;;;;5081840;28;19917;-37
2023/07/09 00:15:51;;;;;;;;;;;23.60;65.50;;;;;;5078827;28;19927;-38
2023/07/09 00:18:17;;;;;;;;;;;23.60;65.80;;;;;;5082979;28;19912;-38
2023/07/09 00:20:43;;;;;;;;;;;23.60;65.80;;;;;;5083099;28;19913;-38
2023/07/09 00:23:13;;;;;;;;;;;23.60;65.80;;;;;;5063376;28;19919;-38
2023/07/09 00:25:44;;;;;;;;;;;23.60;65.90;;;;;;5083076;28;19912;-38
2023/07/09 00:28:17;;;;;;;;;;;23.60;66.00;;;;;;5081610;28;19908;-38
2023/07/09 00:30:44;;;;;;;;;;;23.60;66.20;;;;;;5082557;28;19919;-38
2023/07/09 00:33:10;;;;;;;;;;;23.60;66.30;;;;;;5081994;28;19909;-38
2023/07/09 00:35:36;;;;;;;;;;;23.60;66.50;;;;;;5064296;28;20461;-38
2023/07/09 00:38:02;;;;;;;;;;;23.70;66.70;;;;;;5083190;28;19908;-37
2023/07/09 00:40:28;;;;;;;;;;;23.70;67.00;;;;;;5082955;28;19983;-38
2023/07/09 00:42:54;;;;;;;;;;;23.70;67.10;;;;;;5083010;28;20368;-38
2023/07/09 00:45:24;;;;;;;;;;;23.70;67.30;;;;;;5080451;28;20021;-39
2023/07/09 00:48:00;;;;;;;;;;;23.70;67.50;;;;;;5082566;28;19955;-37
2023/07/09 00:50:30;;;;;;;;;;;23.80;67.80;;;;;;5059920;28;19967;-37
2023/07/09 00:52:56;;;;;;;;;;;23.80;68.10;;;;;;5065012;28;19912;-38
2023/07/09 00:55:26;;;;;;;;;;;23.80;68.30;;;;;;5082827;28;19921;-38
2023/07/09 00:57:56;;;;;;;;;;;23.80;68.40;;;;;;5079832;28;19912;-38
2023/07/09 01:00:23;;;;;;;;;;;23.90;68.60;;;;;;5082409;28;19912;-38
2023/07/09 01:02:49;;;;;;;;;;;23.90;68.70;;;;;;5082669;28;19908;-38
2023/07/09 01:05:17;;;;;;;;;;;23.90;68.80;;;;;;5082170;28;19951;-37
2023/07/09 01:07:45;;;;;;;;;;;23.90;69.00;;;;;;5080538;28;19921;-38
2023/07/09 01:10:12;;;;;;;;;;;24.00;69.10;;;;;;5082308;28;19989;-38
2023/07/09 01:12:38;;;;;;;;;;;24.00;69.20;;;;;;5082729;28;20410;-38
2023/07/09 01:15:04;;;;;;;;;;;24.00;69.30;;;;;;5063988;28;19916;-38
2023/07/09 01:17:30;;;;;;;;;;;24.00;69.40;;;;;;5082452;28;19913;-38
2023/07/09 01:19:56;;;;;;;;;;;24.00;70.20;;;;;;5082354;28;19916;-38
2023/07/09 01:22:22;;;;;;;;;;;24.10;69.60;;;;;;5082331;28;19919;-38
2023/07/09 01:24:54;;;;;;;;;;;24.10;69.60;;;;;;5082597;28;19913;-38
2023/07/09 01:27:31;;;;;;;;;;;24.10;69.70;;;;;;5081790;28;20462;-38
2023/07/09 01:29:57;;;;;;;;;;;24.10;69.70;;;;;;5079051;28;19912;-38
2023/07/09 01:32:23;;;;;;;;;;;24.10;69.80;;;;;;5082090;28;19930;-38
2023/07/09 01:34:50;;;;;;;;;;;24.20;69.90;;;;;;5082204;28;20490;-38
2023/07/09 01:37:16;;;;;;;;;;;24.20;69.90;;;;;;5081550;28;20318;-38
2023/07/09 01:39:42;;;;;;;;;;;24.20;70.00;;;;;;5082436;28;19912;-38
2023/07/09 01:42:08;;;;;;;;;;;24.20;70.00;;;;;;5082104;28;19913;-37
2023/07/09 01:44:35;;;;;;;;;;;24.20;70.00;;;;;;5082263;28;19920;-39
2023/07/09 01:47:03;;;;;;;;;;;24.30;70.20;;;;;;5082140;28;19957;-38
2023/07/09 01:49:32;;;;;;;;;;;24.30;70.20;;;;;;5078787;28;19934;-38
2023/07/09 01:52:01;;;;;;;;;;;24.30;70.30;;;;;;5086390;28;19912;-37
2023/07/09 01:54:30;;;;;;;;;;;24.30;70.30;;;;;;5067086;28;19912;-38
2023/07/09 01:57:12;;;;;;;;;;;24.30;70.40;;;;;;5085807;28;19924;-37
2023/07/09 01:59:41;;;;;;;;;;;24.30;70.30;;;;;;5082745;28;19983;-37
2023/07/09 02:02:07;;;;;;;;;;;24.30;70.40;;;;;;5085935;28;19971;-37
2023/07/09 02:04:33;;;;;;;;;;;24.30;70.40;;;;;;5086287;28;19908;-37
2023/07/09 02:06:59;;;;;;;;;;;24.40;70.50;;;;;;5085131;28;20443;-37
2023/07/09 02:09:25;;;;;;;;;;;24.40;70.50;;;;;;5083698;28;19923;-38
2023/07/09 02:11:51;;;;;;;;;;;24.40;70.60;;;;;;5082595;28;19912;-37
2023/07/09 02:14:16;;;;;;;;;;;24.40;70.60;;;;;;5082530;28;19920;-37
2023/07/09 02:16:43;;;;;;;;;;;24.40;70.60;;;;;;5085673;28;19974;-38
2023/07/09 02:19:09;;;;;;;;;;;24.40;70.70;;;;;;5084967;28;20372;-38
2023/07/09 02:21:35;;;;;;;;;;;24.40;70.70;;;;;;5085551;28;20316;-38
2023/07/09 02:24:01;;;;;;;;;;;24.40;70.70;;;;;;5083641;28;19931;-38
2023/07/09 02:26:26;;;;;;;;;;;24.50;70.80;;;;;;5084781;28;20291;-38
2023/07/09 02:28:52;;;;;;;;;;;24.50;70.80;;;;;;5081966;28;19912;-38
2023/07/09 02:31:19;;;;;;;;;;;24.50;70.80;;;;;;5085506;28;19923;-38
2023/07/09 02:33:45;;;;;;;;;;;24.50;70.70;;;;;;5085442;28;19912;-41
2023/07/09 02:36:11;;;;;;;;;;;24.50;70.80;;;;;;5084878;28;19980;-38
2023/07/09 02:38:37;;;;;;;;;;;24.50;70.80;;;;;;5084990;28;19912;-38
2023/07/09 02:41:02;;;;;;;;;;;24.50;70.80;;;;;;5076906;28;19918;-38
2023/07/09 02:43:28;;;;;;;;;;;24.50;70.90;;;;;;5083730;28;19909;-38
2023/07/09 02:45:54;;;;;;;;;;;24.50;70.80;;;;;;5083915;28;19908;-39
2023/07/09 02:48:20;;;;;;;;;;;24.50;70.90;;;;;;5084724;28;19913;-38
2023/07/09 02:50:46;;;;;;;;;;;24.50;70.90;;;;;;5085161;28;19999;-38
2023/07/09 02:53:12;;;;;;;;;;;24.50;70.90;;;;;;5084521;28;19912;-37
2023/07/09 02:55:37;;;;;;;;;;;24.60;71.00;;;;;;5085292;28;19920;-38
2023/07/09 02:58:03;;;;;;;;;;;24.60;71.00;;;;;;5081004;28;20270;-39
2023/07/09 03:00:30;;;;;;;;;;;24.60;70.90;;;;;;5085680;28;19919;-38
2023/07/09 03:02:56;;;;;;;;;;;24.60;71.10;;;;;;5084953;28;19923;-38
2023/07/09 03:05:22;;;;;;;;;;;24.60;71.10;;;;;;5084207;28;19912;-38
2023/07/09 03:07:48;;;;;;;;;;;24.60;71.20;;;;;;5084360;28;19978;-37
2023/07/09 03:10:14;;;;;;;;;;;24.60;71.20;;;;;;5066231;28;19916;-38
2023/07/09 03:12:40;;;;;;;;;;;24.60;71.20;;;;;;5084893;28;19909;-38
2023/07/09 03:15:06;;;;;;;;;;;24.60;71.30;;;;;;5084529;28;19925;-37
2023/07/09 03:17:32;;;;;;;;;;;24.60;71.30;;;;;;5084646;28;20318;-37
2023/07/09 03:19:57;;;;;;;;;;;24.60;71.30;;;;;;5083865;28;19908;-38
2023/07/09 03:22:23;;;;;;;;;;;24.60;71.30;;;;;;5084535;28;20474;-38
2023/07/09 03:24:49;;;;;;;;;;;24.60;71.40;;;;;;5084600;28;19955;-38
2023/07/09 03:27:15;;;;;;;;;;;24.60;71.40;;;;;;5084262;28;19928;-38
2023/07/09 03:29:41;;;;;;;;;;;24.70;71.50;;;;;;5084468;28;19912;-38
2023/07/09 03:32:07;;;;;;;;;;;24.70;71.40;;;;;;5084049;28;19914;-38
2023/07/09 03:34:33;;;;;;;;;;;24.70;71.30;;;;;;5084339;28;19913;-38
2023/07/09 03:36:58;;;;;;;;;;;24.70;71.30;;;;;;5084087;28;19915;-38
2023/07/09 03:39:24;;;;;;;;;;;24.70;71.30;;;;;;5083712;28;19993;-38
2023/07/09 03:41:50;;;;;;;;;;;24.70;71.30;;;;;;5084201;28;19915;-38
2023/07/09 03:44:16;;;;;;;;;;;24.70;71.40;;;;;;5083532;28;19916;-38
2023/07/09 03:46:42;;;;;;;;;;;24.70;71.40;;;;;;5079010;28;19980;-38
2023/07/09 03:49:08;;;;;;;;;;;24.70;71.30;;;;;;5081362;28;20285;-38
2023/07/09 03:51:34;;;;;;;;;;;24.70;71.50;;;;;;5084197;28;19909;-38
2023/07/09 03:53:59;;;;;;;;;;;24.70;71.40;;;;;;5083834;28;19912;-38
2023/07/09 03:56:25;;;;;;;;;;;24.70;71.50;;;;;;5083832;28;19991;-38
2023/07/09 03:58:51;;;;;;;;;;;24.70;71.50;;;;;;5083605;28;19913;-38
2023/07/09 04:01:17;;;;;;;;;;;24.70;71.50;;;;;;5083891;28;19991;-38
2023/07/09 04:03:43;;;;;;;;;;;24.70;71.50;;;;;;5083675;28;19909;-38
2023/07/09 04:06:09;;;;;;;;;;;24.70;71.50;;;;;;5082778;28;19939;-38
2023/07/09 04:08:35;;;;;;;;;;;24.70;71.50;;;;;;5081140;28;19908;-38
2023/07/09 04:11:01;;;;;;;;;;;24.70;71.50;;;;;;5082313;28;19904;-37
2023/07/09 04:13:28;;;;;;;;;;;24.70;71.50;;;;;;5081461;28;19947;-37
2023/07/09 04:15:54;;;;;;;;;;;24.70;71.40;;;;;;5082972;28;19923;-38
2023/07/09 04:18:20;;;;;;;;;;;24.70;71.40;;;;;;5083226;28;19912;-37
2023/07/09 04:20:49;;;;;;;;;;;24.80;71.30;;;;;;5081248;28;19928;-38
2023/07/09 04:23:15;;;;;;;;;;;24.80;71.30;;;;;;5083320;28;19912;-38
2023/07/09 04:25:41;;;;;;;;;;;24.80;71.40;;;;;;5083586;28;19919;-37
2023/07/09 04:28:07;;;;;;;;;;;24.80;71.40;;;;;;5082661;28;19908;-37
2023/07/09 04:30:33;;;;;;;;;;;24.80;71.50;;;;;;5082916;28;19912;-38
2023/07/09 04:32:59;;;;;;;;;;;24.80;71.60;;;;;;5082952;28;19966;-38
2023/07/09 04:35:25;;;;;;;;;;;24.80;71.70;;;;;;5075563;28;19916;-38
2023/07/09 04:37:51;;;;;;;;;;;24.80;71.70;;;;;;5083273;28;19908;-38
2023/07/09 04:40:17;;;;;;;;;;;24.80;71.90;;;;;;5082522;28;19908;-38
2023/07/09 04:42:43;;;;;;;;;;;24.80;71.90;;;;;;5083077;28;19908;-37
2023/07/09 04:45:10;;;;;;;;;;;24.80;71.90;;;;;;5080819;28;19922;-38
2023/07/09 04:47:35;;;;;;;;;;;24.80;71.90;;;;;;5083416;28;19970;-38
2023/07/09 04:50:02;;;;;;;;;;;24.80;71.80;;;;;;5078155;28;21059;-38
2023/07/09 04:52:28;;;;;;;;;;;24.80;71.70;;;;;;5075504;28;19912;-38
2023/07/09 04:54:54;;;;;;;;;;;24.80;71.60;;;;;;5082913;28;19918;-37
2023/07/09 04:57:20;;;;;;;;;;;24.80;71.50;;;;;;5082471;28;19938;-38
2023/07/09 04:59:45;;;;;;;;;;;24.80;71.50;;;;;;5078761;28;19978;-38
2023/07/09 05:02:11;;;;;;;;;;;24.80;71.50;;;;;;5081391;28;19955;-37
2023/07/09 05:04:37;;;;;;;;;;;24.80;71.70;;;;;;5082729;28;19912;-38
2023/07/09 05:07:03;;;;;;;;;;;24.80;71.80;;;;;;5082334;28;19916;-37
2023/07/09 05:09:29;;;;;;;;;;;24.80;71.80;;;;;;5082445;28;19912;-37
2023/07/09 05:11:55;;;;;;;;;;;24.80;72.00;;;;;;5080928;28;19912;-37
2023/07/09 05:14:21;;;;;;;;;;;24.80;72.10;;;;;;5082458;28;19954;-37
2023/07/09 05:16:47;;;;;;;;;;;24.70;72.00;;;;;;5082855;28;19920;-37
2023/07/09 05:19:12;;;;;;;;;;;24.80;72.20;;;;;;5082204;28;19919;-37
2023/07/09 05:21:38;;;;;;;;;;;24.70;72.10;;;;;;5082294;28;19913;-38
2023/07/09 05:24:04;;;;;;;;;;;24.80;72.10;;;;;;5081971;28;19912;-37
2023/07/09 05:26:30;;;;;;;;;;;24.70;71.90;;;;;;5082707;28;19934;-37
2023/07/09 05:28:57;;;;;;;;;;;24.70;71.70;;;;;;5082386;28;19917;-38
2023/07/09 05:31:23;;;;;;;;;;;24.70;71.50;;;;;;5081980;28;19912;-38
2023/07/09 05:33:48;;;;;;;;;;;24.70;71.30;;;;;;5082316;28;19909;-37
2023/07/09 05:36:15;;;;;;;;;;;24.70;71.20;;;;;;5081990;28;19920;-38
2023/07/09 05:38:46;;;;;;;;;;;24.80;71.20;;;;;;5082669;28;20065;-38
2023/07/09 05:41:12;;;;;;;;;;;24.70;71.10;;;;;;5081879;28;19919;-38
2023/07/09 05:43:38;;;;;;;;;;;24.80;71.10;;;;;;5082303;28;19912;-37
2023/07/09 05:46:04;;;;;;;;;;;24.70;71.10;;;;;;5082250;28;19916;-37
2023/07/09 05:48:30;;;;;;;;;;;24.80;71.10;;;;;;5074867;28;19953;-38
2023/07/09 05:50:56;;;;;;;;;;;24.80;71.10;;;;;;5081934;28;19983;-37
2023/07/09 05:53:22;;;;;;;;;;;24.80;71.10;;;;;;5081997;28;19923;-37
2023/07/09 05:55:48;;;;;;;;;;;24.70;71.10;;;;;;5082539;28;19920;-38
2023/07/09 05:58:14;;;;;;;;;;;24.80;71.20;;;;;;5080393;28;19934;-38
2023/07/09 06:00:41;;;;;;;;;;;24.70;71.10;;;;;;5082014;28;19942;-38
2023/07/09 06:03:07;;;;;;;;;;;24.70;71.20;;;;;;5064443;28;19912;-38
2023/07/09 06:05:33;;;;;;;;;;;24.80;71.30;;;;;;5081072;28;19919;-37
2023/07/09 06:07:59;;;;;;;;;;;24.80;71.20;;;;;;5078657;28;19916;-37
2023/07/09 06:10:25;;;;;;;;;;;24.80;71.10;;;;;;5074108;28;19935;-37
2023/07/09 06:12:52;;;;;;;;;;;24.80;71.20;;;;;;5081760;28;19912;-38
2023/07/09 06:15:18;;;;;;;;;;;24.80;71.20;;;;;;5076403;28;19927;-38
2023/07/09 06:17:44;;;;;;;;;;;24.80;71.20;;;;;;5064540;28;19912;-37
2023/07/09 06:20:10;;;;;;;;;;;24.80;71.10;;;;;;5081390;28;19909;-38
2023/07/09 06:22:36;;;;;;;;;;;24.70;71.80;;;;;;5077037;28;19917;-38
2023/07/09 06:25:02;;;;;;;;;;;24.80;71.00;;;;;;5081907;28;20011;-38
2023/07/09 06:27:28;;;;;;;;;;;24.80;71.30;;;;;;5082067;28;19915;-38
2023/07/09 06:29:54;;;;;;;;;;;24.70;71.80;;;;;;5082095;28;19912;-38
2023/07/09 06:32:20;;;;;;;;;;;24.70;71.90;;;;;;5081581;28;19948;-37
2023/07/09 06:34:45;;;;;;;;;;;24.70;72.20;;;;;;5080513;28;20725;-37
2023/07/09 06:37:11;;;;;;;;;;;24.70;72.20;;;;;;5085141;28;19920;-37
2023/07/09 06:39:37;;;;;;;;;;;24.70;72.30;;;;;;5085071;28;19912;-37
2023/07/09 06:42:03;;;;;;;;;;;24.70;72.20;;;;;;5084729;28;19920;-37
2023/07/09 06:44:29;;;;;;;;;;;24.70;72.30;;;;;;5083051;28;19912;-37
2023/07/09 06:46:55;;;;;;;;;;;24.70;72.30;;;;;;5081384;28;19915;-38
2023/07/09 06:49:21;;;;;;;;;;;24.70;72.00;;;;;;5084996;28;20335;-38
2023/07/09 06:51:47;;;;;;;;;;;24.70;71.60;;;;;;5083608;28;19912;-38
2023/07/09 06:54:15;;;;;;;;;;;24.70;71.40;;;;;;5085145;28;19964;-37
2023/07/09 06:56:41;;;;;;;;;;;24.70;71.30;;;;;;5084963;28;19916;-38
2023/07/09 06:59:07;;;;;;;;;;;24.70;71.30;;;;;;5083797;28;19916;-38
2023/07/09 07:01:33;;;;;;;;;;;24.70;71.20;;;;;;5085325;28;19912;-38
2023/07/09 07:04:00;;;;;;;;;;;24.70;71.10;;;;;;5085009;28;19909;-38
2023/07/09 07:06:26;;;;;;;;;;;24.70;71.10;;;;;;5079349;28;19928;-38
2023/07/09 07:08:52;;;;;;;;;;;24.70;71.10;;;;;;5085159;28;19909;-38
2023/07/09 07:11:17;;;;;;;;;;;24.70;71.20;;;;;;5084659;28;19912;-38
2023/07/09 07:13:43;;;;;;;;;;;24.70;71.40;;;;;;5084849;28;19908;-37
2023/07/09 07:16:10;;;;;;;;;;;24.70;71.80;;;;;;5084149;28;19962;-38
2023/07/09 07:18:36;;;;;;;;;;;24.70;71.90;;;;;;5085213;28;19959;-38
2023/07/09 07:21:02;;;;;;;;;;;24.70;72.00;;;;;;5084189;28;19919;-38
2023/07/09 07:23:28;;;;;;;;;;;24.70;72.00;;;;;;5084539;28;19935;-37
2023/07/09 07:25:54;;;;;;;;;;;24.60;71.90;;;;;;5084725;28;20575;-37
2023/07/09 07:28:20;;;;;;;;;;;24.60;72.00;;;;;;5084305;28;19990;-38
2023/07/09 07:30:46;;;;;;;;;;;24.60;72.10;;;;;;5084541;28;20302;-38
2023/07/09 07:33:13;;;;;;;;;;;24.60;72.00;;;;;;5082944;28;19959;-37
2023/07/09 07:35:39;;;;;;;;;;;24.60;71.80;;;;;;5075447;28;19921;-37
2023/07/09 07:38:05;;;;;;;;;;;24.60;71.60;;;;;;5081749;28;19994;-38
2023/07/09 07:40:31;;;;;;;;;;;24.60;71.50;;;;;;5084467;28;20399;-38
2023/07/09 07:42:56;;;;;;;;;;;24.60;71.40;;;;;;5083873;28;19967;-37
2023/07/09 07:45:22;;;;;;;;;;;24.60;71.40;;;;;;5082754;28;19919;-37
2023/07/09 07:47:51;;;;;;;;;;;24.60;71.40;;;;;;5084401;28;19915;-38
2023/07/09 07:50:17;;;;;;;;;;;24.60;71.40;;;;;;5083803;28;20317;-37
2023/07/09 07:52:43;;;;;;;;;;;24.60;71.40;;;;;;5083403;28;19912;-37
2023/07/09 07:55:08;;;;;;;;;;;24.60;71.50;;;;;;5083823;28;19947;-38
2023/07/09 07:57:34;;;;;;;;;;;24.60;71.60;;;;;;5083748;28;19922;-37
2023/07/09 08:00:00;;;;;;;;;;;24.60;71.80;;;;;;5083669;28;20590;-38
2023/07/09 08:02:26;;;;;;;;;;;24.60;71.90;;;;;;5082885;28;19916;-37
2023/07/09 08:04:52;;;;;;;;;;;24.60;72.00;;;;;;5083563;28;19912;-37
2023/07/09 08:07:18;;;;;;;;;;;24.60;72.00;;;;;;5081815;28;19920;-37
2023/07/09 08:09:44;;;;;;;;;;;24.60;72.00;;;;;;5065769;28;19920;-37
2023/07/09 08:12:12;;;;;;;;;;;24.60;72.00;;;;;;5083171;28;19915;-37
2023/07/09 08:14:38;;;;;;;;;;;24.60;72.80;;;;;;5083190;28;19912;-37
2023/07/09 08:17:04;;;;;;;;;;;24.60;72.00;;;;;;5083076;28;19943;-37
2023/07/09 08:19:30;;;;;;;;;;;24.60;72.00;;;;;;5078315;28;19918;-38
2023/07/09 08:21:56;;;;;;;;;;;24.60;71.80;;;;;;5082495;28;19959;-37
2023/07/09 08:24:22;;;;;;;;;;;24.60;71.70;;;;;;5083065;28;20402;-37
2023/07/09 08:26:48;;;;;;;;;;;24.60;71.70;;;;;;5082562;28;19919;-38
2023/07/09 08:29:14;;;;;;;;;;;24.60;71.70;;;;;;5079398;28;19916;-38
2023/07/09 08:31:41;;;;;;;;;;;24.60;71.70;;;;;;5083552;28;20292;-38
2023/07/09 08:34:07;;;;;;;;;;;24.60;71.70;;;;;;5082576;28;19943;-37
2023/07/09 08:36:33;;;;;;;;;;;24.60;71.80;;;;;;5083111;28;19935;-38
2023/07/09 08:39:00;;;;;;;;;;;24.60;71.70;;;;;;5082911;28;19912;-38
2023/07/09 08:41:37;;;;;;;;;;;24.60;71.90;;;;;;5079087;28;19916;-38
2023/07/09 08:44:17;;;;;;;;;;;24.50;72.00;;;;;;5079539;28;19912;-38
2023/07/09 08:47:02;;;;;;;;;;;24.50;72.00;;;;;;5080125;28;19955;-37
2023/07/09 08:49:36;;;;;;;;;;;24.50;72.00;;;;;;5075298;28;19912;-38
2023/07/09 08:52:02;;;;;;;;;;;24.50;72.00;;;;;;5082853;28;19908;-37
2023/07/09 08:54:28;;;;;;;;;;;24.50;72.00;;;;;;5082576;28;19919;-37
2023/07/09 08:56:55;;;;;;;;;;;24.50;72.00;;;;;;5064911;28;19917;-38
2023/07/09 08:59:20;;;;;;;;;;;24.50;71.90;;;;;;5078231;28;19919;-38
2023/07/09 09:01:50;;;;;;;;;;;24.50;72.00;;;;;;5083156;28;20364;-37
2023/07/09 09:04:19;;;;;;;;;;;24.50;71.90;;;;;;5082067;28;19987;-37
2023/07/09 09:06:46;;;;;;;;;;;24.50;71.90;;;;;;5078923;28;20054;-38
2023/07/09 09:09:18;;;;;;;;;;;24.50;71.90;;;;;;5063072;28;19912;-37
2023/07/09 09:12:10;;;;;;;;;;;24.50;71.90;;;;;;5082870;28;19995;-38
2023/07/09 09:14:37;;;;;;;;;;;24.50;71.80;;;;;;5048199;28;19919;-37
2023/07/09 09:17:03;;;;;;;;;;;24.50;71.90;;;;;;5082616;28;19924;-37
2023/07/09 09:19:37;;;;;;;;;;;24.50;71.90;;;;;;5082739;28;19908;-37
2023/07/09 09:22:04;;;;;;;;;;;24.50;72.00;;;;;;5065481;28;19932;-37
2023/07/09 09:24:31;;;;;;;;;;;24.50;72.10;;;;;;5074788;28;20003;-38
2023/07/09 09:26:57;;;;;;;;;;;24.50;72.10;;;;;;5064284;28;19912;-38
2023/07/09 09:29:23;;;;;;;;;;;24.50;72.20;;;;;;5078659;28;19912;-38
2023/07/09 09:31:50;;;;;;;;;;;24.50;72.30;;;;;;5064704;28;20380;-37
2023/07/09 09:34:17;;;;;;;;;;;24.50;72.30;;;;;;5063839;28;19916;-38
2023/07/09 09:36:42;;;;;;;;;;;24.50;72.20;;;;;;5082513;28;19942;-38
2023/07/09 09:39:08;;;;;;;;;;;24.50;72.30;;;;;;5081916;28;19948;-38
2023/07/09 09:41:34;;;;;;;;;;;24.50;72.20;;;;;;5047670;28;19916;-38
2023/07/09 09:44:00;;;;;;;;;;;24.40;72.10;;;;;;5063091;28;19912;-38
2023/07/09 09:46:29;;;;;;;;;;;24.50;72.20;;;;;;5082273;28;19994;-37
2023/07/09 09:48:56;;;;;;;;;;;24.40;72.80;;;;;;5082592;28;19951;-37
2023/07/09 09:51:22;;;;;;;;;;;24.40;72.10;;;;;;5082105;28;19923;-38
2023/07/09 09:53:58;;;;;;;;;;;24.40;72.00;;;;;;5063990;28;19931;-38
2023/07/09 09:56:27;;;;;;;;;;;24.40;72.00;;;;;;5079547;28;19927;-37
2023/07/09 09:58:56;;;;;;;;;;;24.40;72.10;;;;;;5078424;28;19961;-38
2023/07/09 10:01:29;;;;;;;;;;;24.40;72.20;;;;;;5064082;28;20376;-37
2023/07/09 10:03:56;;;;;;;;;;;24.40;72.30;;;;;;5081913;28;19915;-38
2023/07/09 10:06:25;;;;;;;;;;;24.40;72.30;;;;;;5074151;28;19949;-38
2023/07/09 10:08:56;;;;;;;;;;;24.40;72.30;;;;;;5065835;28;19983;-37
2023/07/09 10:11:28;;;;;;;;;;;24.40;73.10;;;;;;5084887;28;19912;-38
2023/07/09 10:13:55;;;;;;;;;;;24.40;72.40;;;;;;5073998;28;19912;-37
2023/07/09 10:16:35;;;;;;;;;;;24.40;72.50;;;;;;5082870;28;19920;-38
2023/07/09 10:19:23;;;;;;;;;;;24.40;72.60;;;;;;5085723;28;19931;-37
2023/07/09 10:21:57;;;;;;;;;;;24.40;72.60;;;;;;5076600;28;19954;-37
2023/07/09 10:24:36;;;;;;;;;;;24.40;72.50;;;;;;5085242;28;19962;-37
2023/07/09 10:27:04;;;;;;;;;;;24.40;72.40;;;;;;5060576;28;19912;-37
2023/07/09 10:29:30;;;;;;;;;;;24.40;72.40;;;;;;5085275;28;19913;-37
2023/07/09 10:32:00;;;;;;;;;;;24.40;72.40;;;;;;5085494;28;19950;-38
2023/07/09 10:34:52;;;;;;;;;;;24.40;72.30;;;;;;5085193;28;19913;-38
2023/07/09 10:37:39;;;;;;;;;;;24.40;72.30;;;;;;5080379;28;19920;-37
2023/07/09 10:40:07;;;;;;;;;;;24.40;72.40;;;;;;5084768;28;20364;-38
2023/07/09 10:42:35;;;;;;;;;;;24.40;72.40;;;;;;5067542;28;20610;-37
2023/07/09 10:45:03;;;;;;;;;;;24.40;72.50;;;;;;5066754;28;19912;-38
2023/07/09 10:47:31;;;;;;;;;;;24.40;72.60;;;;;;5062768;28;19908;-38
2023/07/09 10:49:56;;;;;;;;;;;24.40;72.60;;;;;;5085497;28;19950;-38
2023/07/09 10:52:27;;;;;;;;;;;24.40;72.80;;;;;;5085049;28;19912;-38
2023/07/09 10:55:03;;;;;;;;;;;24.40;72.80;;;;;;5067047;28;19919;-38
2023/07/09 10:57:42;;;;;;;;;;;24.40;72.90;;;;;;5085030;28;19931;-38
2023/07/09 11:00:11;;;;;;;;;;;24.30;72.70;;;;;;5080860;28;19919;-37
2023/07/09 11:02:37;;;;;;;;;;;24.40;72.80;;;;;;5084639;28;19944;-38
2023/07/09 11:05:04;;;;;;;;;;;24.30;72.70;;;;;;5083916;28;19912;-37
2023/07/09 11:07:36;;;;;;;;;;;24.30;72.70;;;;;;5084502;28;19920;-38
2023/07/09 11:10:03;;;;;;;;;;;24.30;72.60;;;;;;5084798;28;19919;-38
2023/07/09 11:12:49;;;;;;;;;;;24.30;72.60;;;;;;5066617;28;19908;-38
2023/07/09 11:15:16;;;;;;;;;;;24.30;72.60;;;;;;5083489;28;19987;-38
2023/07/09 11:17:43;;;;;;;;;;;24.30;72.60;;;;;;5066283;28;19998;-37
2023/07/09 11:20:26;;;;;;;;;;;24.40;72.70;;;;;;5066098;28;19979;-38
2023/07/09 11:22:53;;;;;;;;;;;24.30;72.70;;;;;;5066783;28;19944;-38
2023/07/09 11:25:28;;;;;;;;;;;24.40;73.00;;;;;;5083976;28;20354;-38
2023/07/09 11:28:01;;;;;;;;;;;24.30;72.80;;;;;;5081504;28;20391;-38
2023/07/09 11:30:27;;;;;;;;;;;24.30;72.90;;;;;;5084337;28;19917;-37
2023/07/09 11:32:55;;;;;;;;;;;24.30;73.00;;;;;;5084715;28;19912;-37
2023/07/09 11:35:25;;;;;;;;;;;24.30;73.00;;;;;;5065837;28;19924;-37
2023/07/09 11:37:52;;;;;;;;;;;24.30;73.20;;;;;;5079928;28;19983;-37
2023/07/09 11:40:19;;;;;;;;;;;24.30;73.10;;;;;;5084044;28;19959;-37
2023/07/09 11:42:50;;;;;;;;;;;24.30;73.10;;;;;;5084324;28;19912;-38
2023/07/09 11:45:17;;;;;;;;;;;24.30;73.10;;;;;;5083542;28;19912;-38
2023/07/09 11:47:45;;;;;;;;;;;24.30;73.10;;;;;;5084129;28;19908;-37
2023/07/09 11:50:22;;;;;;;;;;;24.30;73.00;;;;;;5065997;28;19913;-37
2023/07/09 11:52:50;;;;;;;;;;;24.30;73.00;;;;;;5084349;28;19920;-38
2023/07/09 11:55:39;;;;;;;;;;;24.30;72.90;;;;;;5083623;28;19942;-37
2023/07/09 11:58:05;;;;;;;;;;;24.30;72.90;;;;;;5072992;28;19946;-38
2023/07/09 12:00:36;;;;;;;;;;;24.30;72.90;;;;;;5082893;28;19912;-38
2023/07/09 12:03:02;;;;;;;;;;;24.30;73.60;;;;;;5083734;28;19912;-37
2023/07/09 12:05:28;;;;;;;;;;;24.30;73.00;;;;;;5050466;28;19976;-38
2023/07/09 12:07:55;;;;;;;;;;;24.30;73.10;;;;;;5082657;28;19948;-38
2023/07/09 12:10:22;;;;;;;;;;;24.30;73.30;;;;;;5082959;28;19969;-38
2023/07/09 12:12:48;;;;;;;;;;;24.30;73.40;;;;;;5083872;28;20422;-37
2023/07/09 12:15:22;;;;;;;;;;;24.30;73.50;;;;;;5081768;28;19920;-37
2023/07/09 12:17:54;;;;;;;;;;;24.30;73.60;;;;;;5082222;28;19987;-37
2023/07/09 12:20:20;;;;;;;;;;;24.30;73.70;;;;;;5082557;28;19922;-37
2023/07/09 12:22:46;;;;;;;;;;;24.30;73.70;;;;;;5078538;28;19920;-38
2023/07/09 12:25:22;;;;;;;;;;;24.30;73.60;;;;;;5083049;28;19947;-37
2023/07/09 12:27:48;;;;;;;;;;;24.30;73.60;;;;;;5081572;28;19912;-38
2023/07/09 12:30:14;;;;;;;;;;;24.30;73.40;;;;;;5082727;28;20011;-37
2023/07/09 12:32:44;;;;;;;;;;;24.30;73.30;;;;;;5082956;28;19912;-37
2023/07/09 12:35:11;;;;;;;;;;;24.30;73.30;;;;;;5082827;28;20349;-38
2023/07/09 12:37:37;;;;;;;;;;;24.30;73.30;;;;;;5082622;28;19918;-37
2023/07/09 12:40:04;;;;;;;;;;;24.30;73.30;;;;;;5082847;28;19994;-37
2023/07/09 12:42:31;;;;;;;;;;;24.40;73.30;;;;;;5079086;28;19912;-37
2023/07/09 12:44:56;;;;;;;;;;;24.40;73.30;;;;;;5059278;28;20584;-38
2023/07/09 12:47:23;;;;;;;;;;;24.40;73.50;;;;;;5077460;28;19934;-38
2023/07/09 12:49:51;;;;;;;;;;;24.40;73.60;;;;;;5065142;28;19908;-38
2023/07/09 12:52:19;;;;;;;;;;;24.40;73.90;;;;;;5082968;28;19912;-37
2023/07/09 12:55:11;;;;;;;;;;;24.40;74.00;;;;;;5082121;28;19935;-37
2023/07/09 12:57:37;;;;;;;;;;;24.40;74.00;;;;;;5051412;28;19920;-37
2023/07/09 13:00:05;;;;;;;;;;;24.40;74.20;;;;;;5081460;28;19955;-38
2023/07/09 13:02:37;;;;;;;;;;;24.40;74.20;;;;;;5062422;28;19912;-38
2023/07/09 13:05:04;;;;;;;;;;;24.40;74.30;;;;;;5064672;28;20455;-38
2023/07/09 13:07:34;;;;;;;;;;;24.40;74.10;;;;;;5082227;28;19991;-37
2023/07/09 13:10:04;;;;;;;;;;;24.40;74.00;;;;;;5081415;28;19912;-38
2023/07/09 13:12:31;;;;;;;;;;;24.40;73.80;;;;;;5075388;28;19936;-38
2023/07/09 13:14:56;;;;;;;;;;;24.40;73.60;;;;;;5082410;28;19917;-38
2023/07/09 13:17:22;;;;;;;;;;;24.40;73.60;;;;;;5082372;28;19912;-38
2023/07/09 13:19:49;;;;;;;;;;;24.40;73.50;;;;;;5082597;28;19908;-37
2023/07/09 13:22:16;;;;;;;;;;;24.40;73.50;;;;;;5082154;28;20322;-38
2023/07/09 13:24:42;;;;;;;;;;;24.40;73.50;;;;;;5082749;28;20626;-37
2023/07/09 13:27:14;;;;;;;;;;;24.40;73.60;;;;;;5081396;28;20436;-38
2023/07/09 13:29:41;;;;;;;;;;;24.40;73.90;;;;;;5082417;28;19908;-38
2023/07/09 13:32:11;;;;;;;;;;;24.40;74.10;;;;;;5082549;28;19951;-38
2023/07/09 13:34:38;;;;;;;;;;;24.50;74.20;;;;;;5075654;28;20349;-37
2023/07/09 13:37:04;;;;;;;;;;;24.50;74.20;;;;;;5063662;28;19916;-37
2023/07/09 13:39:31;;;;;;;;;;;24.50;74.40;;;;;;5081506;28;19912;-38
2023/07/09 13:41:57;;;;;;;;;;;24.50;74.40;;;;;;5082506;28;19951;-38
2023/07/09 13:44:27;;;;;;;;;;;24.50;74.20;;;;;;5084718;28;20375;-37
2023/07/09 13:46:53;;;;;;;;;;;24.50;74.20;;;;;;5082542;28;19962;-38
2023/07/09 13:49:20;;;;;;;;;;;24.50;74.20;;;;;;5085253;28;19930;-38
2023/07/09 13:51:46;;;;;;;;;;;24.50;74.20;;;;;;5086483;28;19981;-38
2023/07/09 13:54:23;;;;;;;;;;;24.50;74.30;;;;;;5068101;28;20616;-38
2023/07/09 13:56:52;;;;;;;;;;;24.50;74.20;;;;;;5086335;28;19964;-38
2023/07/09 13:59:18;;;;;;;;;;;24.50;74.40;;;;;;5085869;28;19912;-38
2023/07/09 14:01:44;;;;;;;;;;;24.50;74.40;;;;;;5082893;28;19908;-38
2023/07/09 14:04:13;;;;;;;;;;;24.60;74.60;;;;;;5085915;28;19908;-38
2023/07/09 14:06:39;;;;;;;;;;;24.60;74.70;;;;;;5085359;28;19927;-38
2023/07/09 14:09:06;;;;;;;;;;;24.60;74.80;;;;;;5085484;28;19940;-38
2023/07/09 14:11:32;;;;;;;;;;;24.60;74.70;;;;;;5084412;28;19913;-38
2023/07/09 14:13:58;;;;;;;;;;;24.60;74.80;;;;;;5085947;28;19908;-38
2023/07/09 14:16:24;;;;;;;;;;;24.60;74.80;;;;;;5084266;28;19928;-37
2023/07/09 14:18:50;;;;;;;;;;;24.60;74.70;;;;;;5080637;28;19908;-38